Time;durP1;ratioP1;P1;durP2;ratioP2;P2;SDS_P1;SDS_P2;PMS_P1;PMS_P2;Temp;Humidity;BMP_temperature;BMP_pressure;BME280_temperature;BME280_humidity;BME280_pressure;Samples;Min_cycle;Max_cycle;Signal;HPM_P1;HPM_P2
2022/09/02 00:00:55;;;;;;;;;;;14.50;99.90;;;;;;4590474;19;19938;-25
2022/09/02 00:02:26;;;;;;;;;;;14.50;99.90;;;;;;4590272;19;19933;-23
2022/09/02 00:03:58;;;;;;;;;;;14.50;99.90;;;;;;4590360;19;20487;-23
2022/09/02 00:05:29;;;;;;;;;;;14.50;99.90;;;;;;4591909;19;19911;-25
2022/09/02 00:07:00;;;;;;;;;;;14.50;99.90;;;;;;4591590;19;20310;-22
2022/09/02 00:08:31;;;;;;;;;;;14.50;99.90;;;;;;4591816;19;19911;-23
2022/09/02 00:10:02;;;;;;;;;;;14.40;99.90;;;;;;4590750;19;19933;-23
2022/09/02 00:11:34;;;;;;;;;;;14.40;99.90;;;;;;4591739;19;20261;-23
2022/09/02 00:13:05;;;;;;;;;;;14.40;99.90;;;;;;4591793;19;19918;-23
2022/09/02 00:14:36;;;;;;;;;;;14.40;99.90;;;;;;4591777;19;20329;-22
2022/09/02 00:16:09;;;;;;;;;;;14.40;99.90;;;;;;4591493;19;19940;-25
2022/09/02 00:17:40;;;;;;;;;;;14.40;99.90;;;;;;4589487;19;19910;-23
2022/09/02 00:19:11;;;;;;;;;;;14.50;99.90;;;;;;4590577;19;20316;-25
2022/09/02 00:20:43;;;;;;;;;;;14.40;99.90;;;;;;4590478;19;19926;-25
2022/09/02 00:22:13;;;;;;;;;;;14.40;99.90;;;;;;4591033;19;20284;-22
2022/09/02 00:23:44;;;;;;;;;;;14.40;99.90;;;;;;4591358;19;19926;-23
2022/09/02 00:25:16;;;;;;;;;;;14.40;99.90;;;;;;4591547;19;19914;-23
2022/09/02 00:26:46;;;;;;;;;;;14.40;99.90;;;;;;4590979;19;19915;-23
2022/09/02 00:28:17;;;;;;;;;;;14.40;99.90;;;;;;4588922;19;19988;-26
2022/09/02 00:29:48;;;;;;;;;;;14.40;99.90;;;;;;4590276;19;20299;-23
2022/09/02 00:31:20;;;;;;;;;;;14.40;99.90;;;;;;4590650;19;20336;-23
2022/09/02 00:32:51;;;;;;;;;;;14.40;99.90;;;;;;4590382;19;19938;-23
2022/09/02 00:34:22;;;;;;;;;;;14.40;99.90;;;;;;4591316;19;19926;-23
2022/09/02 00:35:53;;;;;;;;;;;14.30;99.90;;;;;;4591284;19;20280;-24
2022/09/02 00:37:24;;;;;;;;;;;14.30;99.90;;;;;;4591363;19;19927;-22
2022/09/02 00:38:55;;;;;;;;;;;14.30;99.90;;;;;;4591013;19;20328;-21
2022/09/02 00:40:26;;;;;;;;;;;14.30;99.90;;;;;;4590011;19;19939;-21
2022/09/02 00:41:57;;;;;;;;;;;14.30;99.90;;;;;;4589280;19;19919;-22
2022/09/02 00:43:37;;;;;;;;;;;14.30;99.90;;;;;;4590588;19;19985;-23
2022/09/02 00:45:09;;;;;;;;;;;14.30;99.90;;;;;;4590088;19;19915;-23
2022/09/02 00:46:39;;;;;;;;;;;14.30;99.90;;;;;;4589261;19;19941;-25
2022/09/02 00:48:11;;;;;;;;;;;14.30;99.90;;;;;;4590266;19;19982;-23
2022/09/02 00:49:46;;;;;;;;;;;14.30;99.90;;;;;;4591171;19;19926;-26
2022/09/02 00:51:17;;;;;;;;;;;14.30;99.90;;;;;;4590870;19;20310;-23
2022/09/02 00:52:52;;;;;;;;;;;14.30;99.90;;;;;;4589565;19;19932;-26
2022/09/02 00:54:23;;;;;;;;;;;14.30;99.90;;;;;;4590500;19;20264;-23
2022/09/02 00:55:55;;;;;;;;;;;14.30;99.90;;;;;;4589939;19;19955;-24
2022/09/02 00:57:27;;;;;;;;;;;14.30;99.90;;;;;;4590076;19;19937;-25
2022/09/02 00:58:58;;;;;;;;;;;14.20;99.90;;;;;;4590168;19;19915;-25
2022/09/02 01:00:30;;;;;;;;;;;14.20;99.90;;;;;;4589635;19;19978;-25
2022/09/02 01:02:02;;;;;;;;;;;14.30;99.90;;;;;;4590377;19;19930;-23
2022/09/02 01:03:33;;;;;;;;;;;14.20;99.90;;;;;;4589868;19;19919;-23
2022/09/02 01:05:04;;;;;;;;;;;14.20;99.90;;;;;;4588932;19;19929;-23
2022/09/02 01:06:35;;;;;;;;;;;14.20;99.90;;;;;;4589620;19;19929;-23
2022/09/02 01:08:06;;;;;;;;;;;14.20;99.90;;;;;;4590318;19;19980;-23
2022/09/02 01:09:38;;;;;;;;;;;14.20;99.90;;;;;;4590996;19;20237;-23
2022/09/02 01:11:10;;;;;;;;;;;14.20;99.90;;;;;;4590458;19;19919;-23
2022/09/02 01:12:41;;;;;;;;;;;14.20;99.90;;;;;;4590097;19;19918;-23
2022/09/02 01:14:13;;;;;;;;;;;14.10;99.90;;;;;;4590430;19;19926;-23
2022/09/02 01:15:46;;;;;;;;;;;14.10;99.90;;;;;;4590208;19;19911;-23
2022/09/02 01:17:18;;;;;;;;;;;14.20;99.90;;;;;;4589393;19;19918;-24
2022/09/02 01:18:51;;;;;;;;;;;14.20;99.90;;;;;;4589212;19;19918;-23
2022/09/02 01:20:23;;;;;;;;;;;14.10;99.90;;;;;;4589577;19;19915;-24
2022/09/02 01:21:54;;;;;;;;;;;14.10;99.90;;;;;;4588182;19;19921;-21
2022/09/02 01:23:27;;;;;;;;;;;14.10;99.90;;;;;;4590443;19;19926;-24
2022/09/02 01:25:00;;;;;;;;;;;14.10;99.90;;;;;;4588424;19;19918;-23
2022/09/02 01:26:31;;;;;;;;;;;14.00;99.90;;;;;;4589466;19;20363;-25
2022/09/02 01:28:03;;;;;;;;;;;14.00;99.90;;;;;;4589933;19;19914;-24
2022/09/02 01:29:34;;;;;;;;;;;14.00;99.90;;;;;;4590173;19;20244;-22
2022/09/02 01:31:05;;;;;;;;;;;14.00;99.90;;;;;;4590380;19;19915;-24
2022/09/02 01:32:36;;;;;;;;;;;14.00;99.90;;;;;;4590505;19;19990;-24
2022/09/02 01:34:07;;;;;;;;;;;14.00;99.90;;;;;;4590272;19;20152;-23
2022/09/02 01:35:38;;;;;;;;;;;14.00;99.90;;;;;;4590100;19;19914;-22
2022/09/02 01:37:09;;;;;;;;;;;14.00;99.90;;;;;;4590402;19;19921;-24
2022/09/02 01:38:41;;;;;;;;;;;14.00;99.90;;;;;;4589913;19;19922;-23
2022/09/02 01:40:12;;;;;;;;;;;14.00;99.90;;;;;;4589650;19;19985;-22
2022/09/02 01:41:43;;;;;;;;;;;14.00;99.90;;;;;;4587750;19;20356;-23
2022/09/02 01:43:16;;;;;;;;;;;14.00;99.90;;;;;;4589845;19;19978;-22
2022/09/02 01:44:47;;;;;;;;;;;14.00;99.90;;;;;;4589356;19;19915;-23
2022/09/02 01:46:19;;;;;;;;;;;14.00;99.90;;;;;;4589176;19;19990;-23
2022/09/02 01:47:50;;;;;;;;;;;14.00;99.90;;;;;;4589863;19;19919;-23
2022/09/02 01:49:21;;;;;;;;;;;14.00;99.90;;;;;;4588451;19;19914;-23
2022/09/02 01:50:54;;;;;;;;;;;14.00;99.90;;;;;;4590069;19;20341;-22
2022/09/02 01:52:25;;;;;;;;;;;14.00;99.90;;;;;;4588821;19;19911;-23
2022/09/02 01:53:56;;;;;;;;;;;13.90;99.90;;;;;;4589730;19;19927;-23
2022/09/02 01:55:27;;;;;;;;;;;14.00;99.90;;;;;;4589992;19;19925;-23
2022/09/02 01:56:58;;;;;;;;;;;14.00;99.90;;;;;;4589810;19;19922;-22
2022/09/02 01:58:29;;;;;;;;;;;13.90;99.90;;;;;;4589866;19;19918;-23
2022/09/02 02:00:00;;;;;;;;;;;13.90;99.90;;;;;;4589551;19;20346;-23
2022/09/02 02:01:31;;;;;;;;;;;13.90;99.90;;;;;;4589669;19;19926;-26
2022/09/02 02:03:03;;;;;;;;;;;13.90;99.90;;;;;;4588532;19;19919;-25
2022/09/02 02:04:34;;;;;;;;;;;13.80;99.90;;;;;;4588474;19;20256;-24
2022/09/02 02:06:11;;;;;;;;;;;13.80;99.90;;;;;;4589749;19;19930;-25
2022/09/02 02:07:42;;;;;;;;;;;13.80;99.90;;;;;;4590010;19;19918;-23
2022/09/02 02:09:15;;;;;;;;;;;13.80;99.90;;;;;;4589601;19;19915;-22
2022/09/02 02:10:46;;;;;;;;;;;13.80;99.90;;;;;;4589627;19;20017;-24
2022/09/02 02:12:17;;;;;;;;;;;13.80;99.90;;;;;;4588751;19;19915;-23
2022/09/02 02:13:48;;;;;;;;;;;13.80;99.90;;;;;;4589432;19;19918;-26
2022/09/02 02:15:20;;;;;;;;;;;13.70;99.90;;;;;;4588500;19;19923;-24
2022/09/02 02:16:51;;;;;;;;;;;13.80;99.90;;;;;;4589420;19;19918;-26
2022/09/02 02:18:22;;;;;;;;;;;13.80;99.90;;;;;;4589780;19;19919;-23
2022/09/02 02:19:53;;;;;;;;;;;14.40;99.90;;;;;;4589496;19;19921;-26
2022/09/02 02:21:24;;;;;;;;;;;15.00;99.90;;;;;;4589473;19;19932;-24
2022/09/02 02:22:55;;;;;;;;;;;15.50;99.90;;;;;;4587098;19;19915;-23
2022/09/02 02:24:26;;;;;;;;;;;15.90;99.90;;;;;;4588430;19;20276;-24
2022/09/02 02:25:57;;;;;;;;;;;16.20;99.90;;;;;;4589482;19;19933;-24
2022/09/02 02:27:28;;;;;;;;;;;16.50;99.90;;;;;;4589438;19;19930;-25
2022/09/02 02:28:59;;;;;;;;;;;16.70;99.90;;;;;;4589195;19;19918;-22
2022/09/02 02:30:30;;;;;;;;;;;16.90;99.90;;;;;;4588142;19;20256;-23
2022/09/02 02:32:01;;;;;;;;;;;17.00;99.90;;;;;;4588744;19;20229;-25
2022/09/02 02:33:34;;;;;;;;;;;17.20;99.90;;;;;;4591822;19;20293;-25
2022/09/02 02:35:05;;;;;;;;;;;17.30;99.90;;;;;;4591846;19;19936;-24
2022/09/02 02:36:37;;;;;;;;;;;17.40;99.90;;;;;;4592272;19;20377;-24
2022/09/02 02:38:09;;;;;;;;;;;17.50;99.90;;;;;;4591332;19;19928;-25
2022/09/02 02:39:40;;;;;;;;;;;17.60;99.90;;;;;;4593031;19;19974;-23
2022/09/02 02:41:11;;;;;;;;;;;17.70;99.90;;;;;;4592901;19;19907;-27
2022/09/02 02:42:42;;;;;;;;;;;17.80;99.90;;;;;;4593622;19;19922;-25
2022/09/02 02:44:13;;;;;;;;;;;17.80;99.90;;;;;;4592836;19;20304;-27
2022/09/02 02:45:44;;;;;;;;;;;17.90;99.90;;;;;;4592795;19;19918;-24
2022/09/02 02:47:15;;;;;;;;;;;18.00;99.90;;;;;;4593661;19;19919;-24
2022/09/02 02:48:46;;;;;;;;;;;18.00;99.90;;;;;;4592341;19;20339;-25
2022/09/02 02:50:18;;;;;;;;;;;18.00;99.90;;;;;;4591208;19;19928;-25
2022/09/02 02:51:49;;;;;;;;;;;18.10;99.90;;;;;;4591964;19;19931;-25
2022/09/02 02:53:20;;;;;;;;;;;18.10;99.90;;;;;;4592348;19;20240;-24
2022/09/02 02:54:51;;;;;;;;;;;18.20;99.90;;;;;;4593347;19;19927;-25
2022/09/02 02:56:22;;;;;;;;;;;18.20;99.90;;;;;;4593566;19;19911;-25
2022/09/02 02:57:53;;;;;;;;;;;18.20;99.90;;;;;;4592415;19;19922;-25
2022/09/02 02:59:25;;;;;;;;;;;18.30;99.90;;;;;;4591812;19;20285;-25
2022/09/02 03:00:56;;;;;;;;;;;18.30;99.90;;;;;;4592661;19;19918;-23
2022/09/02 03:02:32;;;;;;;;;;;18.40;99.90;;;;;;4592143;19;20313;-25
2022/09/02 03:04:03;;;;;;;;;;;18.40;99.90;;;;;;4593061;19;19931;-24
2022/09/02 03:05:35;;;;;;;;;;;18.40;99.90;;;;;;4593100;19;20364;-25
2022/09/02 03:07:06;;;;;;;;;;;18.40;99.90;;;;;;4593306;19;19914;-24
2022/09/02 03:08:37;;;;;;;;;;;18.50;99.90;;;;;;4593444;19;20551;-24
2022/09/02 03:10:09;;;;;;;;;;;18.50;99.90;;;;;;4592126;19;19930;-25
2022/09/02 03:11:40;;;;;;;;;;;18.50;99.90;;;;;;4592726;19;19918;-27
2022/09/02 03:13:11;;;;;;;;;;;18.60;99.90;;;;;;4592506;19;19922;-24
2022/09/02 03:14:43;;;;;;;;;;;18.60;99.90;;;;;;4593013;19;19911;-27
2022/09/02 03:16:15;;;;;;;;;;;18.60;99.90;;;;;;4591691;19;19926;-26
2022/09/02 03:17:46;;;;;;;;;;;18.60;99.90;;;;;;4591882;19;19982;-23
2022/09/02 03:19:17;;;;;;;;;;;18.60;99.90;;;;;;4592475;19;19915;-24
2022/09/02 03:20:48;;;;;;;;;;;18.70;99.90;;;;;;4593108;19;20468;-24
2022/09/02 03:22:19;;;;;;;;;;;18.70;99.90;;;;;;4591845;19;19943;-26
2022/09/02 03:23:50;;;;;;;;;;;18.70;99.90;;;;;;4590848;19;20313;-25
2022/09/02 03:25:21;;;;;;;;;;;18.70;99.90;;;;;;4591770;19;19922;-25
2022/09/02 03:26:53;;;;;;;;;;;18.70;99.90;;;;;;4594358;19;19922;-24
2022/09/02 03:28:24;;;;;;;;;;;18.70;99.90;;;;;;4593466;19;19922;-24
2022/09/02 03:29:55;;;;;;;;;;;18.70;99.90;;;;;;4593427;19;19918;-26
2022/09/02 03:31:27;;;;;;;;;;;18.80;99.90;;;;;;4593331;19;19951;-25
2022/09/02 03:33:01;;;;;;;;;;;18.80;99.90;;;;;;4595417;19;19938;-24
2022/09/02 03:34:33;;;;;;;;;;;18.80;99.90;;;;;;4593911;19;19918;-27
2022/09/02 03:36:04;;;;;;;;;;;18.80;99.90;;;;;;4594652;19;19939;-24
2022/09/02 03:37:35;;;;;;;;;;;18.80;99.90;;;;;;4593402;19;20357;-24
2022/09/02 03:39:06;;;;;;;;;;;18.80;99.90;;;;;;4594710;19;19926;-25
2022/09/02 03:40:38;;;;;;;;;;;18.80;99.90;;;;;;4593827;19;19936;-26
2022/09/02 03:42:10;;;;;;;;;;;18.80;99.90;;;;;;4591264;19;19922;-26
2022/09/02 03:43:41;;;;;;;;;;;18.80;99.90;;;;;;4595046;19;19918;-24
2022/09/02 03:45:13;;;;;;;;;;;18.80;99.90;;;;;;4590294;19;19989;-25
2022/09/02 03:46:45;;;;;;;;;;;18.90;99.90;;;;;;4593081;19;19928;-24
2022/09/02 03:48:16;;;;;;;;;;;18.90;99.90;;;;;;4593396;19;19937;-26
2022/09/02 03:49:47;;;;;;;;;;;18.90;99.90;;;;;;4595078;19;20309;-27
2022/09/02 03:51:18;;;;;;;;;;;18.90;99.90;;;;;;4593869;19;19918;-24
2022/09/02 03:52:50;;;;;;;;;;;18.90;99.90;;;;;;4592793;19;19922;-26
2022/09/02 03:54:21;;;;;;;;;;;18.90;99.90;;;;;;4594752;19;20390;-24
2022/09/02 03:55:51;;;;;;;;;;;19.00;99.90;;;;;;4592212;19;20333;-24
2022/09/02 03:57:25;;;;;;;;;;;18.90;99.90;;;;;;4592641;19;19982;-27
2022/09/02 03:58:56;;;;;;;;;;;19.00;99.90;;;;;;4591139;19;20281;-25
2022/09/02 04:00:32;;;;;;;;;;;19.00;99.90;;;;;;4594243;19;19918;-24
2022/09/02 04:02:03;;;;;;;;;;;19.00;99.90;;;;;;4593852;19;19931;-27
2022/09/02 04:03:34;;;;;;;;;;;19.00;99.90;;;;;;4593600;19;19918;-25
2022/09/02 04:05:05;;;;;;;;;;;19.00;99.90;;;;;;4592488;19;19943;-25
2022/09/02 04:06:37;;;;;;;;;;;19.00;99.90;;;;;;4592577;19;19921;-24
2022/09/02 04:08:08;;;;;;;;;;;19.10;99.90;;;;;;4594580;19;19922;-24
2022/09/02 04:09:39;;;;;;;;;;;19.10;99.90;;;;;;4593031;19;19928;-25
2022/09/02 04:11:11;;;;;;;;;;;19.10;99.90;;;;;;4594340;19;19926;-26
2022/09/02 04:12:42;;;;;;;;;;;19.10;99.90;;;;;;4593676;19;19915;-26
2022/09/02 04:14:13;;;;;;;;;;;19.10;99.90;;;;;;4593091;19;20400;-24
2022/09/02 04:15:46;;;;;;;;;;;19.10;99.90;;;;;;4592905;19;19923;-27
2022/09/02 04:17:17;;;;;;;;;;;19.10;99.90;;;;;;4592194;19;19990;-25
2022/09/02 04:18:48;;;;;;;;;;;19.10;99.90;;;;;;4594427;19;20321;-23
2022/09/02 04:20:19;;;;;;;;;;;19.10;99.90;;;;;;4592748;19;19926;-24
2022/09/02 04:21:50;;;;;;;;;;;19.10;99.90;;;;;;4594461;19;19933;-26
2022/09/02 04:23:22;;;;;;;;;;;19.20;99.90;;;;;;4592773;19;19947;-24
2022/09/02 04:24:53;;;;;;;;;;;19.20;99.90;;;;;;4591957;19;19947;-25
2022/09/02 04:26:24;;;;;;;;;;;19.20;99.90;;;;;;4592399;19;19915;-26
2022/09/02 04:27:55;;;;;;;;;;;19.20;99.90;;;;;;4590506;19;19930;-26
2022/09/02 04:29:26;;;;;;;;;;;19.20;99.90;;;;;;4591791;19;20329;-25
2022/09/02 04:30:57;;;;;;;;;;;19.20;99.90;;;;;;4592140;19;19922;-26
2022/09/02 04:32:28;;;;;;;;;;;19.20;99.90;;;;;;4590740;19;19923;-25
2022/09/02 04:33:59;;;;;;;;;;;19.20;99.90;;;;;;4592750;19;20254;-24
2022/09/02 04:35:31;;;;;;;;;;;19.20;99.90;;;;;;4593133;19;20255;-25
2022/09/02 04:37:02;;;;;;;;;;;19.20;99.90;;;;;;4593985;19;19917;-26
2022/09/02 04:38:33;;;;;;;;;;;19.20;99.90;;;;;;4592428;19;19935;-25
2022/09/02 04:40:04;;;;;;;;;;;19.20;99.90;;;;;;4593335;19;19919;-24
2022/09/02 04:41:36;;;;;;;;;;;19.20;99.90;;;;;;4590030;19;20250;-26
2022/09/02 04:43:07;;;;;;;;;;;19.20;99.90;;;;;;4591164;19;19925;-24
2022/09/02 04:44:38;;;;;;;;;;;19.20;99.90;;;;;;4590777;19;19978;-26
2022/09/02 04:46:09;;;;;;;;;;;19.20;99.90;;;;;;4590631;19;19923;-24
2022/09/02 04:47:41;;;;;;;;;;;19.20;99.90;;;;;;4590774;19;19919;-23
2022/09/02 04:49:12;;;;;;;;;;;19.20;99.90;;;;;;4592426;19;20339;-25
2022/09/02 04:50:43;;;;;;;;;;;19.20;99.90;;;;;;4589380;19;19915;-24
2022/09/02 04:52:14;;;;;;;;;;;19.20;99.90;;;;;;4590168;19;19926;-24
2022/09/02 04:53:45;;;;;;;;;;;19.20;99.90;;;;;;4590612;19;19931;-26
2022/09/02 04:55:16;;;;;;;;;;;19.20;99.90;;;;;;4590025;19;19923;-26
2022/09/02 04:56:47;;;;;;;;;;;19.20;99.90;;;;;;4589296;19;19915;-26
2022/09/02 04:58:18;;;;;;;;;;;19.30;99.90;;;;;;4589713;19;20323;-23
2022/09/02 04:59:49;;;;;;;;;;;19.30;99.90;;;;;;4590509;19;20000;-26
2022/09/02 05:01:21;;;;;;;;;;;19.30;99.90;;;;;;4591084;19;19911;-25
2022/09/02 05:02:52;;;;;;;;;;;19.30;99.90;;;;;;4591005;19;19917;-24
2022/09/02 05:04:23;;;;;;;;;;;19.30;99.90;;;;;;4589300;19;19919;-24
2022/09/02 05:06:04;;;;;;;;;;;19.30;99.90;;;;;;4590481;19;20349;-24
2022/09/02 05:07:36;;;;;;;;;;;19.30;99.90;;;;;;4590697;19;19914;-24
2022/09/02 05:09:07;;;;;;;;;;;19.30;99.90;;;;;;4591109;19;20225;-25
2022/09/02 05:10:38;;;;;;;;;;;19.30;99.90;;;;;;4590577;19;20413;-24
2022/09/02 05:12:10;;;;;;;;;;;19.30;99.90;;;;;;4590592;19;19914;-23
2022/09/02 05:13:41;;;;;;;;;;;19.30;99.90;;;;;;4590291;19;19923;-26
2022/09/02 05:15:12;;;;;;;;;;;19.30;99.90;;;;;;4590918;19;20254;-24
2022/09/02 05:16:44;;;;;;;;;;;19.30;99.90;;;;;;4590586;19;19922;-25
2022/09/02 05:18:15;;;;;;;;;;;18.80;99.90;;;;;;4590426;19;20265;-23
2022/09/02 05:19:46;;;;;;;;;;;16.40;99.90;;;;;;4589175;19;20591;-25
2022/09/02 05:21:17;;;;;;;;;;;15.50;99.90;;;;;;4592224;19;19918;-24
2022/09/02 05:22:48;;;;;;;;;;;15.20;99.90;;;;;;4591670;19;19945;-22
2022/09/02 05:24:20;;;;;;;;;;;15.00;99.90;;;;;;4590788;19;20038;-25
2022/09/02 05:25:51;;;;;;;;;;;14.80;99.90;;;;;;4592160;19;19922;-24
2022/09/02 05:27:22;;;;;;;;;;;14.80;99.90;;;;;;4591475;19;19922;-23
2022/09/02 05:28:53;;;;;;;;;;;14.70;99.90;;;;;;4590946;19;20291;-22
2022/09/02 05:30:24;;;;;;;;;;;14.70;99.90;;;;;;4589963;19;20268;-23
2022/09/02 05:31:55;;;;;;;;;;;14.70;99.90;;;;;;4592941;19;19923;-23
2022/09/02 05:33:26;;;;;;;;;;;14.70;99.90;;;;;;4591109;19;20268;-23
2022/09/02 05:34:57;;;;;;;;;;;14.70;99.90;;;;;;4591295;19;19926;-23
2022/09/02 05:36:31;;;;;;;;;;;14.70;99.90;;;;;;4589044;19;19918;-21
2022/09/02 05:38:02;;;;;;;;;;;14.70;99.90;;;;;;4591274;19;20353;-21
2022/09/02 05:39:33;;;;;;;;;;;14.70;99.90;;;;;;4590591;19;19923;-23
2022/09/02 05:41:06;;;;;;;;;;;14.70;99.90;;;;;;4588878;19;19923;-23
2022/09/02 05:42:38;;;;;;;;;;;14.70;99.90;;;;;;4589782;19;19922;-24
2022/09/02 05:44:09;;;;;;;;;;;14.70;99.90;;;;;;4589998;19;19935;-26
2022/09/02 05:45:40;;;;;;;;;;;14.70;99.90;;;;;;4592350;19;20352;-23
2022/09/02 05:47:11;;;;;;;;;;;14.70;99.90;;;;;;4590205;19;19914;-23
2022/09/02 05:50:32;;;;;;;;;;;14.70;99.90;;;;;;4592291;19;20328;-25
2022/09/02 05:52:03;;;;;;;;;;;14.70;99.90;;;;;;4591658;19;19936;-25
2022/09/02 05:53:34;;;;;;;;;;;14.80;99.90;;;;;;4591168;19;19919;-22
2022/09/02 05:55:05;;;;;;;;;;;14.70;99.90;;;;;;4591360;19;19926;-24
2022/09/02 05:56:39;;;;;;;;;;;14.80;99.90;;;;;;4590167;19;19925;-24
2022/09/02 05:58:10;;;;;;;;;;;14.80;99.90;;;;;;4590017;19;19911;-23
2022/09/02 05:59:41;;;;;;;;;;;14.90;99.90;;;;;;4588917;19;20337;-23
2022/09/02 06:01:13;;;;;;;;;;;14.90;99.90;;;;;;4588475;19;19919;-24
2022/09/02 06:02:45;;;;;;;;;;;14.90;99.90;;;;;;4588464;19;19943;-25
2022/09/02 06:04:16;;;;;;;;;;;14.90;99.90;;;;;;4591633;19;19910;-24
2022/09/02 06:05:54;;;;;;;;;;;14.90;99.90;;;;;;4591825;19;19931;-24
2022/09/02 06:07:25;;;;;;;;;;;14.90;99.90;;;;;;4591817;19;20337;-23
2022/09/02 06:08:56;;;;;;;;;;;15.00;99.90;;;;;;4595397;19;19997;-23
2022/09/02 06:10:27;;;;;;;;;;;14.90;99.90;;;;;;4595631;19;19914;-24
2022/09/02 06:11:58;;;;;;;;;;;15.00;99.90;;;;;;4595255;19;19932;-26
2022/09/02 06:13:30;;;;;;;;;;;15.10;99.90;;;;;;4594946;19;20267;-26
2022/09/02 06:15:01;;;;;;;;;;;15.00;99.90;;;;;;4593468;19;20388;-24
2022/09/02 06:16:32;;;;;;;;;;;15.10;99.90;;;;;;4593648;19;19915;-23
2022/09/02 06:18:03;;;;;;;;;;;15.10;99.90;;;;;;4591497;19;19954;-24
2022/09/02 06:19:35;;;;;;;;;;;15.10;99.90;;;;;;4595573;19;19945;-23
2022/09/02 06:21:05;;;;;;;;;;;15.20;99.90;;;;;;4595985;19;20337;-23
2022/09/02 06:22:36;;;;;;;;;;;15.20;99.90;;;;;;4595751;19;19918;-23
2022/09/02 06:24:08;;;;;;;;;;;15.20;99.90;;;;;;4593288;19;19954;-24
2022/09/02 06:25:40;;;;;;;;;;;15.30;99.90;;;;;;4594164;19;19926;-23
2022/09/02 06:27:10;;;;;;;;;;;15.30;99.90;;;;;;4593447;19;19947;-23
2022/09/02 06:28:42;;;;;;;;;;;15.30;99.90;;;;;;4594023;19;19941;-23
2022/09/02 06:30:14;;;;;;;;;;;15.30;99.90;;;;;;4597023;19;20670;-26
2022/09/02 06:31:45;;;;;;;;;;;15.40;99.90;;;;;;4595921;19;19918;-23
2022/09/02 06:33:16;;;;;;;;;;;15.40;99.90;;;;;;4595510;19;19910;-25
2022/09/02 06:34:47;;;;;;;;;;;15.40;99.90;;;;;;4595043;19;19922;-25
2022/09/02 06:36:18;;;;;;;;;;;15.40;99.90;;;;;;4594869;19;19918;-23
2022/09/02 06:37:49;;;;;;;;;;;15.50;99.90;;;;;;4592366;19;19926;-23
2022/09/02 06:39:21;;;;;;;;;;;15.50;99.90;;;;;;4593723;19;19915;-23
2022/09/02 06:40:53;;;;;;;;;;;15.50;99.90;;;;;;4593535;19;19927;-23
2022/09/02 06:42:24;;;;;;;;;;;15.50;99.90;;;;;;4593654;19;20332;-23
2022/09/02 06:43:57;;;;;;;;;;;15.50;99.90;;;;;;4596148;19;19927;-23
2022/09/02 06:45:30;;;;;;;;;;;15.60;99.90;;;;;;4593938;19;19927;-24
2022/09/02 06:47:01;;;;;;;;;;;15.60;99.90;;;;;;4595582;19;20256;-23
2022/09/02 06:48:32;;;;;;;;;;;15.60;99.90;;;;;;4594920;19;19945;-23
2022/09/02 06:50:04;;;;;;;;;;;15.60;99.90;;;;;;4594923;19;19926;-23
2022/09/02 06:51:36;;;;;;;;;;;15.60;99.90;;;;;;4594642;19;20609;-23
2022/09/02 06:53:07;;;;;;;;;;;15.70;99.90;;;;;;4594433;19;19918;-24
2022/09/02 06:54:38;;;;;;;;;;;15.70;99.90;;;;;;4593526;19;19923;-24
2022/09/02 06:56:10;;;;;;;;;;;15.80;99.90;;;;;;4591951;19;19932;-23
2022/09/02 06:57:40;;;;;;;;;;;15.80;99.90;;;;;;4593103;19;20252;-23
2022/09/02 06:59:12;;;;;;;;;;;15.80;99.90;;;;;;4595925;19;20271;-24
2022/09/02 07:00:43;;;;;;;;;;;15.90;99.90;;;;;;4595031;19;19911;-23
2022/09/02 07:02:15;;;;;;;;;;;15.90;99.90;;;;;;4593429;19;19910;-24
2022/09/02 07:05:35;;;;;;;;;;;15.90;99.90;;;;;;4593864;19;19978;-23
2022/09/02 07:07:07;;;;;;;;;;;15.90;99.90;;;;;;4593137;19;19926;-22
2022/09/02 07:08:38;;;;;;;;;;;16.00;99.90;;;;;;4592938;19;20260;-25
2022/09/02 07:10:10;;;;;;;;;;;16.00;99.90;;;;;;4593247;19;19925;-23
2022/09/02 07:11:41;;;;;;;;;;;16.00;99.90;;;;;;4593022;19;19919;-23
2022/09/02 07:13:13;;;;;;;;;;;16.10;99.90;;;;;;4593068;19;19926;-24
2022/09/02 07:14:44;;;;;;;;;;;16.10;99.90;;;;;;4593165;19;19918;-24
2022/09/02 07:16:16;;;;;;;;;;;16.10;99.90;;;;;;4593406;19;19937;-24
2022/09/02 07:17:48;;;;;;;;;;;16.10;99.90;;;;;;4592949;19;20329;-26
2022/09/02 07:19:19;;;;;;;;;;;16.10;99.90;;;;;;4591141;19;19951;-23
2022/09/02 07:20:50;;;;;;;;;;;16.10;99.90;;;;;;4592119;19;19990;-22
2022/09/02 07:22:21;;;;;;;;;;;16.10;99.90;;;;;;4592148;19;19923;-23
2022/09/02 07:23:52;;;;;;;;;;;16.10;99.90;;;;;;4592343;19;19918;-24
2022/09/02 07:25:23;;;;;;;;;;;16.10;99.90;;;;;;4591344;19;19947;-23
2022/09/02 07:26:55;;;;;;;;;;;16.10;99.90;;;;;;4593063;19;19923;-24
2022/09/02 07:28:26;;;;;;;;;;;16.20;99.90;;;;;;4593138;19;19937;-23
2022/09/02 07:29:58;;;;;;;;;;;16.20;99.90;;;;;;4591697;19;19919;-23
2022/09/02 07:31:29;;;;;;;;;;;16.20;99.90;;;;;;4592476;19;19941;-24
2022/09/02 07:33:00;;;;;;;;;;;16.30;99.90;;;;;;4593028;19;20320;-24
2022/09/02 07:34:31;;;;;;;;;;;16.30;99.90;;;;;;4592239;19;19943;-24
2022/09/02 07:36:05;;;;;;;;;;;16.30;99.90;;;;;;4592127;19;19927;-24
2022/09/02 07:37:37;;;;;;;;;;;16.30;99.90;;;;;;4592482;19;20333;-24
2022/09/02 07:39:08;;;;;;;;;;;16.30;99.90;;;;;;4592363;19;20340;-24
2022/09/02 07:40:40;;;;;;;;;;;16.40;99.90;;;;;;4592137;19;20340;-24
2022/09/02 07:42:11;;;;;;;;;;;16.40;99.90;;;;;;4591065;19;19925;-23
2022/09/02 07:43:42;;;;;;;;;;;16.40;99.90;;;;;;4590639;19;19923;-23
2022/09/02 07:45:14;;;;;;;;;;;16.50;99.90;;;;;;4591297;19;19918;-23
2022/09/02 07:46:45;;;;;;;;;;;16.50;99.90;;;;;;4590793;19;19926;-23
2022/09/02 07:48:16;;;;;;;;;;;16.50;99.90;;;;;;4591226;19;19963;-25
2022/09/02 07:49:47;;;;;;;;;;;16.40;99.90;;;;;;4590929;19;19919;-24
2022/09/02 07:51:18;;;;;;;;;;;16.50;99.90;;;;;;4591278;19;20024;-24
2022/09/02 07:53:04;;;;;;;;;;;16.50;99.90;;;;;;4591484;19;19930;-23
2022/09/02 07:54:42;;;;;;;;;;;16.50;99.90;;;;;;4590739;19;20340;-24
2022/09/02 07:56:20;;;;;;;;;;;16.50;99.90;;;;;;4591408;19;19922;-22
2022/09/02 07:57:55;;;;;;;;;;;16.50;99.90;;;;;;4592210;19;19922;-23
2022/09/02 07:59:34;;;;;;;;;;;16.50;99.90;;;;;;4592187;19;20412;-22
2022/09/02 08:01:08;;;;;;;;;;;16.60;99.90;;;;;;4590899;19;19960;-23
2022/09/02 08:02:40;;;;;;;;;;;16.60;99.90;;;;;;4590674;19;19922;-23
2022/09/02 08:04:12;;;;;;;;;;;16.70;99.90;;;;;;4590906;19;19925;-24
2022/09/02 08:05:45;;;;;;;;;;;16.60;99.90;;;;;;4591372;19;20343;-23
2022/09/02 08:07:23;;;;;;;;;;;16.60;99.90;;;;;;4591691;19;20349;-23
2022/09/02 08:08:58;;;;;;;;;;;16.60;99.90;;;;;;4591665;19;20260;-24
2022/09/02 08:10:41;;;;;;;;;;;16.70;99.90;;;;;;4591664;19;19935;-23
2022/09/02 08:12:14;;;;;;;;;;;16.80;99.90;;;;;;4591792;19;19915;-23
2022/09/02 08:13:45;;;;;;;;;;;16.80;99.90;;;;;;4591572;19;20403;-23
2022/09/02 08:15:18;;;;;;;;;;;16.80;99.90;;;;;;4591742;19;19941;-24
2022/09/02 08:16:50;;;;;;;;;;;16.80;99.90;;;;;;4590575;19;19922;-24
2022/09/02 08:18:20;;;;;;;;;;;16.80;99.90;;;;;;4591530;19;20328;-23
2022/09/02 08:19:52;;;;;;;;;;;16.90;99.90;;;;;;4591592;19;19911;-23
2022/09/02 08:21:24;;;;;;;;;;;16.90;99.90;;;;;;4591476;19;20242;-25
2022/09/02 08:22:56;;;;;;;;;;;17.00;99.90;;;;;;4591782;19;19930;-23
2022/09/02 08:24:29;;;;;;;;;;;17.00;99.90;;;;;;4591099;19;19941;-25
2022/09/02 08:26:01;;;;;;;;;;;16.90;99.90;;;;;;4591521;19;19932;-24
2022/09/02 08:27:32;;;;;;;;;;;16.90;99.90;;;;;;4591485;19;19978;-23
2022/09/02 08:29:04;;;;;;;;;;;16.90;99.90;;;;;;4590304;19;19922;-25
2022/09/02 08:30:35;;;;;;;;;;;16.90;99.90;;;;;;4589874;19;19918;-24
2022/09/02 08:32:06;;;;;;;;;;;16.90;99.90;;;;;;4591469;19;19923;-24
2022/09/02 08:33:37;;;;;;;;;;;17.00;99.90;;;;;;4591511;19;19922;-23
2022/09/02 08:35:08;;;;;;;;;;;17.00;99.90;;;;;;4591135;19;19919;-24
2022/09/02 08:36:42;;;;;;;;;;;17.00;99.90;;;;;;4591108;19;20344;-23
2022/09/02 08:38:13;;;;;;;;;;;17.00;99.90;;;;;;4590165;19;19918;-23
2022/09/02 08:39:44;;;;;;;;;;;17.00;99.90;;;;;;4590287;19;19918;-23
2022/09/02 08:41:34;;;;;;;;;;;17.10;99.90;;;;;;4589550;19;19945;-23
2022/09/02 08:43:24;;;;;;;;;;;17.30;99.90;;;;;;4593166;19;19941;-25
2022/09/02 08:44:57;;;;;;;;;;;17.50;99.90;;;;;;4590292;19;20233;-24
2022/09/02 08:46:30;;;;;;;;;;;17.80;99.90;;;;;;4589821;19;19922;-24
2022/09/02 08:48:07;;;;;;;;;;;17.90;99.90;;;;;;4590867;19;19918;-22
2022/09/02 08:49:39;;;;;;;;;;;18.00;99.90;;;;;;4591031;19;19945;-25
2022/09/02 08:51:12;;;;;;;;;;;18.20;99.90;;;;;;4589632;19;19915;-24
2022/09/02 08:52:52;;;;;;;;;;;18.30;99.90;;;;;;4590514;19;19919;-24
2022/09/02 08:54:30;;;;;;;;;;;18.30;99.90;;;;;;4590411;19;19947;-24
2022/09/02 08:56:02;;;;;;;;;;;18.50;99.90;;;;;;4590806;19;19919;-23
2022/09/02 08:57:33;;;;;;;;;;;18.50;99.90;;;;;;4589557;19;20263;-24